sensor_id;sensor_type;location;lat;lon;timestamp;pressure;altitude;pressure_sealevel;temperature;humidity
29879;BME280;16752;53.364;-1.488;2023-05-07T00:02:42;100103.53;;;23.22;47.69
29879;BME280;16752;53.364;-1.488;2023-05-07T00:05:28;100109.78;;;23.29;47.59
29879;BME280;16752;53.364;-1.488;2023-05-07T00:08:12;100139.97;;;23.44;47.60
29879;BME280;16752;53.364;-1.488;2023-05-07T00:10:56;100083.09;;;23.14;47.66
29879;BME280;16752;53.364;-1.488;2023-05-07T00:13:40;100093.78;;;23.14;47.88
29879;BME280;16752;53.364;-1.488;2023-05-07T00:16:24;100090.41;;;23.05;48.07
29879;BME280;16752;53.364;-1.488;2023-05-07T00:19:08;100103.53;;;23.22;47.69
29879;BME280;16752;53.364;-1.488;2023-05-07T00:21:52;100074.38;;;23.05;47.47
29879;BME280;16752;53.364;-1.488;2023-05-07T00:24:40;100111.81;;;23.27;47.69
29879;BME280;16752;53.364;-1.488;2023-05-07T00:27:24;100113.53;;;23.34;47.56
29879;BME280;16752;53.364;-1.488;2023-05-07T00:30:09;100129.47;;;23.42;47.72
29879;BME280;16752;53.364;-1.488;2023-05-07T00:32:53;100102.44;;;23.16;47.67
29879;BME280;16752;53.364;-1.488;2023-05-07T00:35:37;100111.81;;;23.27;47.48
29879;BME280;16752;53.364;-1.488;2023-05-07T00:38:21;100083.53;;;23.17;47.54
29879;BME280;16752;53.364;-1.488;2023-05-07T00:41:05;100100.09;;;23.28;47.69
29879;BME280;16752;53.364;-1.488;2023-05-07T00:43:50;100140.66;;;23.53;47.58
29879;BME280;16752;53.364;-1.488;2023-05-07T00:46:35;100152.75;;;23.48;47.49
29879;BME280;16752;53.364;-1.488;2023-05-07T00:49:19;100135.50;;;23.51;47.47
29879;BME280;16752;53.364;-1.488;2023-05-07T00:52:06;100109.19;;;23.33;47.52
29879;BME280;16752;53.364;-1.488;2023-05-07T00:54:50;100115.25;;;23.42;47.22
29879;BME280;16752;53.364;-1.488;2023-05-07T00:57:36;100150.88;;;23.64;47.30
29879;BME280;16752;53.364;-1.488;2023-05-07T01:00:21;100109.91;;;23.42;47.06
29879;BME280;16752;53.364;-1.488;2023-05-07T01:03:05;100111.84;;;23.48;47.19
29879;BME280;16752;53.364;-1.488;2023-05-07T01:05:50;100113.47;;;23.49;47.02
29879;BME280;16752;53.364;-1.488;2023-05-07T01:08:35;100119.75;;;23.56;47.17
29879;BME280;16752;53.364;-1.488;2023-05-07T01:11:19;100128.22;;;23.60;46.92
29879;BME280;16752;53.364;-1.488;2023-05-07T01:14:05;100088.69;;;23.40;47.05
29879;BME280;16752;53.364;-1.488;2023-05-07T01:16:50;100101.25;;;23.40;47.08
29879;BME280;16752;53.364;-1.488;2023-05-07T01:19:35;100104.44;;;23.29;47.00
29879;BME280;16752;53.364;-1.488;2023-05-07T01:22:46;100085.13;;;23.12;47.35
29879;BME280;16752;53.364;-1.488;2023-05-07T01:25:30;100114.94;;;23.30;47.37
29879;BME280;16752;53.364;-1.488;2023-05-07T01:28:14;100141.97;;;23.42;47.36
29879;BME280;16752;53.364;-1.488;2023-05-07T01:31:01;100113.66;;;23.26;47.22
29879;BME280;16752;53.364;-1.488;2023-05-07T01:33:48;100096.69;;;23.19;47.17
29879;BME280;16752;53.364;-1.488;2023-05-07T01:36:34;100132.13;;;23.42;47.19
29879;BME280;16752;53.364;-1.488;2023-05-07T01:39:19;100095.63;;;23.13;47.25
29879;BME280;16752;53.364;-1.488;2023-05-07T01:42:03;100089.91;;;23.16;47.21
29879;BME280;16752;53.364;-1.488;2023-05-07T01:44:47;100112.44;;;23.29;47.31
29879;BME280;16752;53.364;-1.488;2023-05-07T01:47:32;100067.13;;;22.99;47.16
29879;BME280;16752;53.364;-1.488;2023-05-07T01:50:18;100097.91;;;23.16;46.88
29879;BME280;16752;53.364;-1.488;2023-05-07T01:53:02;100081.13;;;23.01;47.51
29879;BME280;16752;53.364;-1.488;2023-05-07T01:55:47;100105.47;;;23.13;47.22
29879;BME280;16752;53.364;-1.488;2023-05-07T01:58:30;100139.25;;;23.35;47.39
29879;BME280;16752;53.364;-1.488;2023-05-07T02:01:15;100105.66;;;23.11;47.06
29879;BME280;16752;53.364;-1.488;2023-05-07T02:03:59;100134.03;;;23.27;47.22
29879;BME280;16752;53.364;-1.488;2023-05-07T02:06:43;100119.47;;;23.15;47.58
29879;BME280;16752;53.364;-1.488;2023-05-07T02:09:27;100162.09;;;23.38;47.38
29879;BME280;16752;53.364;-1.488;2023-05-07T02:12:12;100154.00;;;23.31;47.31
29879;BME280;16752;53.364;-1.488;2023-05-07T02:14:56;100117.63;;;23.15;47.40
29879;BME280;16752;53.364;-1.488;2023-05-07T02:17:59;100115.91;;;23.08;47.22
29879;BME280;16752;53.364;-1.488;2023-05-07T02:20:43;100097.81;;;22.89;47.66
29879;BME280;16752;53.364;-1.488;2023-05-07T02:23:27;100108.94;;;22.92;47.72
29879;BME280;16752;53.364;-1.488;2023-05-07T02:26:11;100150.16;;;23.19;47.60
29879;BME280;16752;53.364;-1.488;2023-05-07T02:28:55;100134.44;;;23.09;47.60
29879;BME280;16752;53.364;-1.488;2023-05-07T02:31:39;100143.09;;;23.11;47.49
29879;BME280;16752;53.364;-1.488;2023-05-07T02:34:23;100181.38;;;23.33;47.60
29879;BME280;16752;53.364;-1.488;2023-05-07T02:37:07;100151.75;;;23.13;47.50
29879;BME280;16752;53.364;-1.488;2023-05-07T02:39:51;100138.13;;;23.08;47.59
29879;BME280;16752;53.364;-1.488;2023-05-07T02:42:35;100180.81;;;23.38;47.55
29879;BME280;16752;53.364;-1.488;2023-05-07T02:45:19;100175.78;;;23.28;47.47
29879;BME280;16752;53.364;-1.488;2023-05-07T02:48:04;100162.44;;;23.13;47.70
29879;BME280;16752;53.364;-1.488;2023-05-07T02:50:49;100178.28;;;23.15;48.00
29879;BME280;16752;53.364;-1.488;2023-05-07T02:53:33;100195.75;;;23.32;47.52
29879;BME280;16752;53.364;-1.488;2023-05-07T02:56:17;100199.25;;;23.33;47.75
29879;BME280;16752;53.364;-1.488;2023-05-07T02:59:01;100202.56;;;23.35;47.40
29879;BME280;16752;53.364;-1.488;2023-05-07T03:01:45;100182.69;;;23.23;47.51
29879;BME280;16752;53.364;-1.488;2023-05-07T03:04:29;100168.78;;;23.12;47.60
29879;BME280;16752;53.364;-1.488;2023-05-07T03:07:13;100210.59;;;23.20;47.84
29879;BME280;16752;53.364;-1.488;2023-05-07T03:09:58;100160.25;;;23.02;47.52
29879;BME280;16752;53.364;-1.488;2023-05-07T03:12:42;100146.78;;;22.96;47.25
29879;BME280;16752;53.364;-1.488;2023-05-07T03:15:26;100214.53;;;23.39;47.57
29879;BME280;16752;53.364;-1.488;2023-05-07T03:18:10;100179.53;;;23.19;47.29
29879;BME280;16752;53.364;-1.488;2023-05-07T03:20:54;100197.16;;;23.28;47.45
29879;BME280;16752;53.364;-1.488;2023-05-07T03:23:38;100172.28;;;23.13;47.54
29879;BME280;16752;53.364;-1.488;2023-05-07T03:26:22;100187.22;;;23.22;47.42
29879;BME280;16752;53.364;-1.488;2023-05-07T03:29:06;100192.63;;;23.29;47.28
29879;BME280;16752;53.364;-1.488;2023-05-07T03:31:50;100176.34;;;23.24;47.54
29879;BME280;16752;53.364;-1.488;2023-05-07T03:34:34;100153.59;;;22.98;47.36
29879;BME280;16752;53.364;-1.488;2023-05-07T03:37:18;100220.19;;;23.14;47.97
29879;BME280;16752;53.364;-1.488;2023-05-07T03:40:02;100157.31;;;22.82;48.17
29879;BME280;16752;53.364;-1.488;2023-05-07T03:42:47;100216.78;;;23.21;47.72
29879;BME280;16752;53.364;-1.488;2023-05-07T03:45:31;100157.41;;;22.89;47.88
29879;BME280;16752;53.364;-1.488;2023-05-07T03:48:15;100193.41;;;23.08;47.96
29879;BME280;16752;53.364;-1.488;2023-05-07T03:50:59;100210.16;;;23.16;47.37
29879;BME280;16752;53.364;-1.488;2023-05-07T03:53:43;100200.28;;;23.17;47.65
29879;BME280;16752;53.364;-1.488;2023-05-07T03:56:27;100210.53;;;23.13;47.64
29879;BME280;16752;53.364;-1.488;2023-05-07T03:59:12;100222.88;;;23.14;47.61
29879;BME280;16752;53.364;-1.488;2023-05-07T04:01:58;100223.31;;;23.18;47.72
29879;BME280;16752;53.364;-1.488;2023-05-07T04:04:42;100210.81;;;23.04;47.62
29879;BME280;16752;53.364;-1.488;2023-05-07T04:07:26;100204.28;;;23.06;47.78
29879;BME280;16752;53.364;-1.488;2023-05-07T04:10:10;100198.03;;;22.99;47.70
29879;BME280;16752;53.364;-1.488;2023-05-07T04:12:53;100167.16;;;22.82;47.54
29879;BME280;16752;53.364;-1.488;2023-05-07T04:15:37;100167.81;;;22.84;47.84
29879;BME280;16752;53.364;-1.488;2023-05-07T04:18:21;100223.50;;;23.16;47.55
29879;BME280;16752;53.364;-1.488;2023-05-07T04:21:06;100161.16;;;22.80;47.55
29879;BME280;16752;53.364;-1.488;2023-05-07T04:23:57;100173.59;;;22.88;47.71
29879;BME280;16752;53.364;-1.488;2023-05-07T04:26:42;100195.16;;;23.01;47.56
29879;BME280;16752;53.364;-1.488;2023-05-07T04:29:26;100201.34;;;23.01;47.45
29879;BME280;16752;53.364;-1.488;2023-05-07T04:32:10;100199.56;;;23.08;47.30
29879;BME280;16752;53.364;-1.488;2023-05-07T04:34:54;100195.81;;;23.03;47.48
29879;BME280;16752;53.364;-1.488;2023-05-07T04:37:38;100198.28;;;23.04;47.32
29879;BME280;16752;53.364;-1.488;2023-05-07T04:40:22;100219.03;;;23.02;47.94
29879;BME280;16752;53.364;-1.488;2023-05-07T04:43:06;100155.25;;;22.70;47.50
29879;BME280;16752;53.364;-1.488;2023-05-07T04:45:52;100188.63;;;22.89;47.72
29879;BME280;16752;53.364;-1.488;2023-05-07T04:48:36;100200.03;;;22.97;47.76
29879;BME280;16752;53.364;-1.488;2023-05-07T04:51:21;100212.03;;;23.01;47.88
29879;BME280;16752;53.364;-1.488;2023-05-07T04:54:05;100233.56;;;23.14;47.88
29879;BME280;16752;53.364;-1.488;2023-05-07T04:56:49;100211.84;;;23.03;47.59
29879;BME280;16752;53.364;-1.488;2023-05-07T04:59:33;100231.56;;;23.02;48.03
29879;BME280;16752;53.364;-1.488;2023-05-07T05:02:17;100215.66;;;22.71;48.63
29879;BME280;16752;53.364;-1.488;2023-05-07T05:05:01;100198.66;;;22.86;48.00
29879;BME280;16752;53.364;-1.488;2023-05-07T05:07:46;100235.41;;;23.14;47.99
29879;BME280;16752;53.364;-1.488;2023-05-07T05:10:30;100220.22;;;23.00;48.04
29879;BME280;16752;53.364;-1.488;2023-05-07T05:13:14;100239.34;;;23.18;48.04
29879;BME280;16752;53.364;-1.488;2023-05-07T05:15:58;100192.88;;;22.83;48.01
29879;BME280;16752;53.364;-1.488;2023-05-07T05:18:42;100222.22;;;23.12;47.82
29879;BME280;16752;53.364;-1.488;2023-05-07T05:21:26;100236.34;;;23.21;48.13
29879;BME280;16752;53.364;-1.488;2023-05-07T05:24:10;100231.81;;;23.22;48.18
29879;BME280;16752;53.364;-1.488;2023-05-07T05:26:54;100236.78;;;23.25;47.90
29879;BME280;16752;53.364;-1.488;2023-05-07T05:29:38;100185.19;;;22.80;48.32
29879;BME280;16752;53.364;-1.488;2023-05-07T05:32:22;100216.34;;;22.88;48.06
29879;BME280;16752;53.364;-1.488;2023-05-07T05:35:06;100203.50;;;22.68;48.22
29879;BME280;16752;53.364;-1.488;2023-05-07T05:37:50;100259.38;;;23.07;48.06
29879;BME280;16752;53.364;-1.488;2023-05-07T05:40:34;100222.97;;;22.92;48.14
29879;BME280;16752;53.364;-1.488;2023-05-07T05:43:18;100261.03;;;23.23;47.99
29879;BME280;16752;53.364;-1.488;2023-05-07T05:46:02;100273.72;;;23.36;48.19
29879;BME280;16752;53.364;-1.488;2023-05-07T05:48:48;100276.31;;;23.44;47.88
29879;BME280;16752;53.364;-1.488;2023-05-07T05:51:32;100259.38;;;23.07;48.39
29879;BME280;16752;53.364;-1.488;2023-05-07T05:54:16;100251.72;;;23.04;48.51
29879;BME280;16752;53.364;-1.488;2023-05-07T05:57:00;100284.06;;;23.39;48.33
29879;BME280;16752;53.364;-1.488;2023-05-07T05:59:44;100252.84;;;23.25;48.13
29879;BME280;16752;53.364;-1.488;2023-05-07T06:02:28;100281.94;;;23.49;47.70
29879;BME280;16752;53.364;-1.488;2023-05-07T06:05:12;100264.22;;;23.48;47.84
29879;BME280;16752;53.364;-1.488;2023-05-07T06:07:56;100261.84;;;23.38;47.98
29879;BME280;16752;53.364;-1.488;2023-05-07T06:10:40;100236.94;;;23.38;48.13
29879;BME280;16752;53.364;-1.488;2023-05-07T06:13:25;100246.75;;;23.01;48.46
29879;BME280;16752;53.364;-1.488;2023-05-07T06:16:09;100299.00;;;23.48;48.07
29879;BME280;16752;53.364;-1.488;2023-05-07T06:18:53;100304.06;;;23.58;47.89
29879;BME280;16752;53.364;-1.488;2023-05-07T06:21:37;100256.03;;;23.35;48.40
29879;BME280;16752;53.364;-1.488;2023-05-07T06:24:21;100301.94;;;23.68;47.93
29879;BME280;16752;53.364;-1.488;2023-05-07T06:27:05;100253.25;;;23.58;47.85
29879;BME280;16752;53.364;-1.488;2023-05-07T06:29:50;100301.25;;;23.95;47.59
29879;BME280;16752;53.364;-1.488;2023-05-07T07:00:14;100333.09;;;23.90;46.27
29879;BME280;16752;53.364;-1.488;2023-05-07T07:03:18;100287.50;;;23.84;47.01
29879;BME280;16752;53.364;-1.488;2023-05-07T07:06:02;100259.03;;;23.76;46.09
29879;BME280;16752;53.364;-1.488;2023-05-07T07:08:47;100292.94;;;23.90;46.62
29879;BME280;16752;53.364;-1.488;2023-05-07T07:11:31;100260.75;;;23.84;46.45
29879;BME280;16752;53.364;-1.488;2023-05-07T07:14:15;100314.66;;;23.51;46.47
29879;BME280;16752;53.364;-1.488;2023-05-07T07:16:58;100305.53;;;23.75;46.06
29879;BME280;16752;53.364;-1.488;2023-05-07T07:19:42;100328.66;;;23.83;45.74
29879;BME280;16752;53.364;-1.488;2023-05-07T07:22:26;100282.69;;;23.94;45.88
29879;BME280;16752;53.364;-1.488;2023-05-07T07:25:10;100284.56;;;24.15;45.12
29879;BME280;16752;53.364;-1.488;2023-05-07T07:27:55;100294.38;;;23.71;46.33
29879;BME280;16752;53.364;-1.488;2023-05-07T07:30:39;100344.63;;;24.48;45.19
29879;BME280;16752;53.364;-1.488;2023-05-07T07:33:24;100305.88;;;23.87;46.63
29879;BME280;16752;53.364;-1.488;2023-05-07T07:36:08;100282.19;;;24.05;45.56
29879;BME280;16752;53.364;-1.488;2023-05-07T07:38:53;100334.88;;;24.62;45.07
29879;BME280;16752;53.364;-1.488;2023-05-07T07:41:37;100299.41;;;24.60;43.77
29879;BME280;16752;53.364;-1.488;2023-05-07T07:44:21;100343.03;;;24.75;44.20
29879;BME280;16752;53.364;-1.488;2023-05-07T07:47:05;100306.25;;;24.41;44.61
29879;BME280;16752;53.364;-1.488;2023-05-07T07:49:49;100312.69;;;24.47;44.92
29879;BME280;16752;53.364;-1.488;2023-05-07T07:52:33;100369.56;;;24.70;43.65
29879;BME280;16752;53.364;-1.488;2023-05-07T07:55:20;100350.84;;;24.98;42.71
29879;BME280;16752;53.364;-1.488;2023-05-07T07:58:06;100344.09;;;24.81;43.27
29879;BME280;16752;53.364;-1.488;2023-05-07T08:00:50;100360.56;;;25.27;43.16
29879;BME280;16752;53.364;-1.488;2023-05-07T08:03:34;100365.84;;;25.48;42.52
29879;BME280;16752;53.364;-1.488;2023-05-07T08:06:19;100347.22;;;25.75;42.03
29879;BME280;16752;53.364;-1.488;2023-05-07T08:09:03;100363.31;;;24.84;42.87
29879;BME280;16752;53.364;-1.488;2023-05-07T08:11:47;100303.31;;;25.41;41.84
29879;BME280;16752;53.364;-1.488;2023-05-07T08:14:31;100283.31;;;25.09;42.81
29879;BME280;16752;53.364;-1.488;2023-05-07T08:17:15;100317.53;;;25.07;41.93
29879;BME280;16752;53.364;-1.488;2023-05-07T08:20:00;100340.22;;;25.74;41.72
29879;BME280;16752;53.364;-1.488;2023-05-07T08:22:44;100363.13;;;26.31;41.04
29879;BME280;16752;53.364;-1.488;2023-05-07T08:25:27;100315.16;;;26.14;41.30
29879;BME280;16752;53.364;-1.488;2023-05-07T08:28:12;100295.69;;;25.86;42.27
29879;BME280;16752;53.364;-1.488;2023-05-07T08:30:55;100330.06;;;25.35;40.58
29879;BME280;16752;53.364;-1.488;2023-05-07T08:36:38;100390.38;;;25.73;40.48
29879;BME280;16752;53.364;-1.488;2023-05-07T08:39:25;100360.03;;;25.73;41.04
29879;BME280;16752;53.364;-1.488;2023-05-07T08:42:42;100334.50;;;25.55;41.12
29879;BME280;16752;53.364;-1.488;2023-05-07T08:45:41;100399.28;;;25.80;41.64
29879;BME280;16752;53.364;-1.488;2023-05-07T08:48:29;100347.63;;;25.72;38.80
29879;BME280;16752;53.364;-1.488;2023-05-07T08:51:18;100311.56;;;25.46;40.16
29879;BME280;16752;53.364;-1.488;2023-05-07T08:54:09;100394.78;;;26.42;39.19
29879;BME280;16752;53.364;-1.488;2023-05-07T08:56:54;100315.78;;;26.16;40.79
29879;BME280;16752;53.364;-1.488;2023-05-07T08:59:40;100389.03;;;26.58;39.34
29879;BME280;16752;53.364;-1.488;2023-05-07T09:02:24;100353.56;;;25.61;38.58
29879;BME280;16752;53.364;-1.488;2023-05-07T09:05:08;100360.03;;;25.38;38.38
29879;BME280;16752;53.364;-1.488;2023-05-07T09:07:52;100348.72;;;26.65;37.49
29879;BME280;16752;53.364;-1.488;2023-05-07T09:10:39;100367.59;;;26.10;39.09
29879;BME280;16752;53.364;-1.488;2023-05-07T09:13:53;100326.06;;;25.58;39.02
29879;BME280;16752;53.364;-1.488;2023-05-07T09:16:48;100309.72;;;25.95;37.51
29879;BME280;16752;53.364;-1.488;2023-05-07T09:19:36;100378.06;;;26.53;38.19
29879;BME280;16752;53.364;-1.488;2023-05-07T09:22:20;100349.19;;;24.97;40.37
29879;BME280;16752;53.364;-1.488;2023-05-07T09:25:10;100326.72;;;24.98;39.83
29879;BME280;16752;53.364;-1.488;2023-05-07T09:27:58;100360.22;;;26.26;38.62
29879;BME280;16752;53.364;-1.488;2023-05-07T09:30:45;100415.09;;;26.03;39.03
29879;BME280;16752;53.364;-1.488;2023-05-07T09:37:20;100344.34;;;26.44;38.81
29879;BME280;16752;53.364;-1.488;2023-05-07T09:40:37;100345.75;;;26.27;37.44
29879;BME280;16752;53.364;-1.488;2023-05-07T09:43:53;100428.56;;;27.30;38.19
29879;BME280;16752;53.364;-1.488;2023-05-07T09:47:11;100402.72;;;27.09;37.78
29879;BME280;16752;53.364;-1.488;2023-05-07T09:50:22;100425.06;;;27.10;37.26
29879;BME280;16752;53.364;-1.488;2023-05-07T09:53:33;100351.34;;;26.32;36.54
29879;BME280;16752;53.364;-1.488;2023-05-07T09:59:35;100391.06;;;26.36;38.23
29879;BME280;16752;53.364;-1.488;2023-05-07T10:02:40;100389.81;;;25.56;38.20
29879;BME280;16752;53.364;-1.488;2023-05-07T10:16:36;100422.53;;;27.61;36.03
29879;BME280;16752;53.364;-1.488;2023-05-07T10:19:21;100457.72;;;27.86;37.47
29879;BME280;16752;53.364;-1.488;2023-05-07T10:22:54;100379.00;;;24.87;38.02
29879;BME280;16752;53.364;-1.488;2023-05-07T10:25:52;100409.91;;;26.63;36.80
29879;BME280;16752;53.364;-1.488;2023-05-07T10:36:28;100381.44;;;27.01;33.90
29879;BME280;16752;53.364;-1.488;2023-05-07T10:43:40;100431.03;;;27.72;33.00
29879;BME280;16752;53.364;-1.488;2023-05-07T10:46:26;100373.97;;;27.03;35.40
29879;BME280;16752;53.364;-1.488;2023-05-07T10:49:19;100469.00;;;28.28;34.24
29879;BME280;16752;53.364;-1.488;2023-05-07T10:52:41;100416.47;;;26.40;35.24
29879;BME280;16752;53.364;-1.488;2023-05-07T10:55:45;100473.16;;;26.11;35.03
29879;BME280;16752;53.364;-1.488;2023-05-07T11:06:25;100421.94;;;28.24;33.14
29879;BME280;16752;53.364;-1.488;2023-05-07T11:09:09;100407.84;;;28.28;32.56
29879;BME280;16752;53.364;-1.488;2023-05-07T11:18:53;100481.97;;;28.89;33.09
29879;BME280;16752;53.364;-1.488;2023-05-07T11:21:38;100482.78;;;28.89;33.51
29879;BME280;16752;53.364;-1.488;2023-05-07T11:24:39;100485.81;;;28.61;30.99
29879;BME280;16752;53.364;-1.488;2023-05-07T11:27:48;100450.97;;;28.28;32.65
29879;BME280;16752;53.364;-1.488;2023-05-07T11:30:43;100425.75;;;27.96;31.36
29879;BME280;16752;53.364;-1.488;2023-05-07T11:40:28;100504.22;;;26.74;33.09
29879;BME280;16752;53.364;-1.488;2023-05-07T11:43:21;100486.63;;;28.62;31.10
29879;BME280;16752;53.364;-1.488;2023-05-07T11:52:59;100466.63;;;29.14;29.75
29879;BME280;16752;53.364;-1.488;2023-05-07T11:55:52;100494.50;;;28.70;30.66
29879;BME280;16752;53.364;-1.488;2023-05-07T11:58:36;100468.19;;;28.14;30.56
29879;BME280;16752;53.364;-1.488;2023-05-07T12:09:23;100490.03;;;27.27;32.71
29879;BME280;16752;53.364;-1.488;2023-05-07T12:16:50;100499.88;;;26.73;32.18
29879;BME280;16752;53.364;-1.488;2023-05-07T12:19:59;100430.84;;;26.94;31.10
29879;BME280;16752;53.364;-1.488;2023-05-07T12:23:34;100431.47;;;26.22;31.58
29879;BME280;16752;53.364;-1.488;2023-05-07T12:26:38;100434.81;;;26.30;31.60
29879;BME280;16752;53.364;-1.488;2023-05-07T12:29:59;100486.19;;;25.30;33.78
29879;BME280;16752;53.364;-1.488;2023-05-07T12:36:57;100487.59;;;29.12;28.74
29879;BME280;16752;53.364;-1.488;2023-05-07T12:40:08;100509.56;;;29.72;28.72
29879;BME280;16752;53.364;-1.488;2023-05-07T12:46:58;100516.44;;;29.87;27.11
29879;BME280;16752;53.364;-1.488;2023-05-07T12:53:31;100499.09;;;30.19;27.38
29879;BME280;16752;53.364;-1.488;2023-05-07T13:00:35;100449.66;;;28.44;28.48
29879;BME280;16752;53.364;-1.488;2023-05-07T13:03:37;100494.22;;;30.76;26.14
29879;BME280;16752;53.364;-1.488;2023-05-07T13:06:59;100465.97;;;30.42;27.18
29879;BME280;16752;53.364;-1.488;2023-05-07T13:10:02;100497.50;;;29.68;24.83
29879;BME280;16752;53.364;-1.488;2023-05-07T13:12:47;100482.34;;;30.29;24.75
29879;BME280;16752;53.364;-1.488;2023-05-07T13:15:32;100496.78;;;28.67;28.83
29879;BME280;16752;53.364;-1.488;2023-05-07T13:18:29;100508.03;;;28.64;28.22
29879;BME280;16752;53.364;-1.488;2023-05-07T13:21:14;100453.84;;;29.03;28.15
29879;BME280;16752;53.364;-1.488;2023-05-07T13:24:01;100477.13;;;28.59;28.15
29879;BME280;16752;53.364;-1.488;2023-05-07T13:26:47;100484.25;;;27.23;29.89
29879;BME280;16752;53.364;-1.488;2023-05-07T13:29:34;100489.00;;;28.90;28.29
29879;BME280;16752;53.364;-1.488;2023-05-07T13:32:18;100471.63;;;27.70;28.56
29879;BME280;16752;53.364;-1.488;2023-05-07T13:35:02;100469.09;;;27.88;28.73
29879;BME280;16752;53.364;-1.488;2023-05-07T13:37:52;100453.81;;;27.49;29.69
29879;BME280;16752;53.364;-1.488;2023-05-07T13:40:52;100531.84;;;29.36;28.05
29879;BME280;16752;53.364;-1.488;2023-05-07T13:50:42;100473.63;;;30.27;26.57
29879;BME280;16752;53.364;-1.488;2023-05-07T13:57:16;100452.22;;;29.89;26.21
29879;BME280;16752;53.364;-1.488;2023-05-07T14:00:28;100515.13;;;30.51;25.15
29879;BME280;16752;53.364;-1.488;2023-05-07T14:03:16;100465.31;;;30.88;23.83
29879;BME280;16752;53.364;-1.488;2023-05-07T14:06:30;100460.44;;;28.76;25.92
29879;BME280;16752;53.364;-1.488;2023-05-07T14:09:14;100464.91;;;30.73;23.63
29879;BME280;16752;53.364;-1.488;2023-05-07T14:12:02;100485.09;;;31.54;23.77
29879;BME280;16752;53.364;-1.488;2023-05-07T14:14:46;100457.66;;;32.26;23.00
29879;BME280;16752;53.364;-1.488;2023-05-07T14:17:30;100510.41;;;31.83;23.25
29879;BME280;16752;53.364;-1.488;2023-05-07T14:20:14;100486.44;;;31.10;23.14
29879;BME280;16752;53.364;-1.488;2023-05-07T14:22:58;100458.63;;;30.13;24.67
29879;BME280;16752;53.364;-1.488;2023-05-07T14:26:11;100525.44;;;30.24;24.18
29879;BME280;16752;53.364;-1.488;2023-05-07T14:29:25;100474.31;;;30.04;23.98
29879;BME280;16752;53.364;-1.488;2023-05-07T14:32:41;100456.00;;;30.54;23.55
29879;BME280;16752;53.364;-1.488;2023-05-07T14:35:36;100480.03;;;31.57;23.38
29879;BME280;16752;53.364;-1.488;2023-05-07T14:38:24;100443.16;;;29.65;22.91
29879;BME280;16752;53.364;-1.488;2023-05-07T14:41:11;100439.19;;;29.86;23.20
29879;BME280;16752;53.364;-1.488;2023-05-07T14:43:55;100457.25;;;32.05;22.54
29879;BME280;16752;53.364;-1.488;2023-05-07T14:46:42;100477.25;;;32.28;23.36
29879;BME280;16752;53.364;-1.488;2023-05-07T14:49:33;100460.59;;;33.26;21.99
29879;BME280;16752;53.364;-1.488;2023-05-07T14:52:18;100484.28;;;33.31;20.47
29879;BME280;16752;53.364;-1.488;2023-05-07T14:55:09;100466.34;;;34.02;19.10
29879;BME280;16752;53.364;-1.488;2023-05-07T14:58:22;100521.94;;;34.33;19.39
29879;BME280;16752;53.364;-1.488;2023-05-07T15:01:06;100450.91;;;33.47;18.89
29879;BME280;16752;53.364;-1.488;2023-05-07T15:03:56;100453.72;;;33.74;18.83
29879;BME280;16752;53.364;-1.488;2023-05-07T15:07:21;100523.47;;;32.61;20.43
29879;BME280;16752;53.364;-1.488;2023-05-07T15:10:06;100510.72;;;33.86;21.55
29879;BME280;16752;53.364;-1.488;2023-05-07T15:12:50;100473.06;;;35.24;17.69
29879;BME280;16752;53.364;-1.488;2023-05-07T15:15:34;100523.28;;;36.12;17.77
29879;BME280;16752;53.364;-1.488;2023-05-07T15:18:45;100466.00;;;35.28;17.76
29879;BME280;16752;53.364;-1.488;2023-05-07T15:21:35;100527.34;;;36.10;18.13
29879;BME280;16752;53.364;-1.488;2023-05-07T15:24:20;100512.50;;;34.19;19.93
29879;BME280;16752;53.364;-1.488;2023-05-07T15:27:13;100477.66;;;32.48;20.93
29879;BME280;16752;53.364;-1.488;2023-05-07T15:30:04;100477.41;;;35.57;19.01
29879;BME280;16752;53.364;-1.488;2023-05-07T15:32:49;100469.75;;;37.30;17.30
29879;BME280;16752;53.364;-1.488;2023-05-07T15:35:33;100478.44;;;36.61;17.84
29879;BME280;16752;53.364;-1.488;2023-05-07T15:38:46;100474.69;;;35.20;18.78
29879;BME280;16752;53.364;-1.488;2023-05-07T15:41:39;100482.22;;;32.88;21.00
29879;BME280;16752;53.364;-1.488;2023-05-07T15:44:24;100463.72;;;32.56;22.08
29879;BME280;16752;53.364;-1.488;2023-05-07T15:47:21;100499.41;;;31.19;23.56
29879;BME280;16752;53.364;-1.488;2023-05-07T15:50:06;100467.28;;;31.23;24.62
29879;BME280;16752;53.364;-1.488;2023-05-07T15:52:59;100520.66;;;29.83;25.59
29879;BME280;16752;53.364;-1.488;2023-05-07T15:55:52;100483.84;;;30.73;24.34
29879;BME280;16752;53.364;-1.488;2023-05-07T15:58:47;100481.41;;;33.04;21.76
29879;BME280;16752;53.364;-1.488;2023-05-07T16:02:10;100501.16;;;37.07;17.95
29879;BME280;16752;53.364;-1.488;2023-05-07T16:05:17;100540.66;;;34.73;19.31
29879;BME280;16752;53.364;-1.488;2023-05-07T16:11:16;100513.53;;;35.79;19.03
29879;BME280;16752;53.364;-1.488;2023-05-07T16:14:00;100478.44;;;34.11;20.51
29879;BME280;16752;53.364;-1.488;2023-05-07T16:16:47;100450.69;;;31.66;22.76
29879;BME280;16752;53.364;-1.488;2023-05-07T16:19:31;100443.16;;;32.32;22.82
29879;BME280;16752;53.364;-1.488;2023-05-07T16:22:19;100501.13;;;32.54;21.74
29879;BME280;16752;53.364;-1.488;2023-05-07T16:25:18;100493.34;;;29.91;24.27
29879;BME280;16752;53.364;-1.488;2023-05-07T16:28:03;100482.63;;;30.87;23.36
29879;BME280;16752;53.364;-1.488;2023-05-07T16:30:57;100527.09;;;30.43;24.92
29879;BME280;16752;53.364;-1.488;2023-05-07T16:33:46;100525.69;;;29.79;25.02
29879;BME280;16752;53.364;-1.488;2023-05-07T16:36:33;100521.97;;;29.98;25.23
29879;BME280;16752;53.364;-1.488;2023-05-07T16:39:17;100446.41;;;28.60;26.18
29879;BME280;16752;53.364;-1.488;2023-05-07T16:42:01;100453.03;;;29.53;25.83
29879;BME280;16752;53.364;-1.488;2023-05-07T16:44:50;100448.84;;;29.32;26.28